sensor_id;sensor_type;location;lat;lon;timestamp;pressure;altitude;pressure_sealevel;temperature;humidity
65376;BME280;51976;47.332;9.404;2023-07-29T00:00:35;92548.31;;;17.10;75.59
65376;BME280;51976;47.332;9.404;2023-07-29T00:03:01;92537.31;;;17.27;74.75
65376;BME280;51976;47.332;9.404;2023-07-29T00:05:26;92537.91;;;17.33;74.56
65376;BME280;51976;47.332;9.404;2023-07-29T00:07:52;92538.25;;;17.32;74.61
65376;BME280;51976;47.332;9.404;2023-07-29T00:10:17;92538.50;;;17.18;74.79
65376;BME280;51976;47.332;9.404;2023-07-29T00:12:43;92532.19;;;17.26;74.37
65376;BME280;51976;47.332;9.404;2023-07-29T00:15:08;92531.34;;;17.34;74.10
65376;BME280;51976;47.332;9.404;2023-07-29T00:17:34;92532.75;;;17.40;73.97
65376;BME280;51976;47.332;9.404;2023-07-29T00:19:59;92519.84;;;17.29;74.05
65376;BME280;51976;47.332;9.404;2023-07-29T00:22:24;92520.13;;;17.36;73.72
65376;BME280;51976;47.332;9.404;2023-07-29T00:24:53;92519.72;;;17.46;73.33
65376;BME280;51976;47.332;9.404;2023-07-29T00:27:20;92509.44;;;17.01;74.53
65376;BME280;51976;47.332;9.404;2023-07-29T00:29:45;92516.59;;;17.14;75.03
65376;BME280;51976;47.332;9.404;2023-07-29T00:32:10;92507.56;;;17.22;74.87
65376;BME280;51976;47.332;9.404;2023-07-29T00:34:36;92498.38;;;17.06;75.19
65376;BME280;51976;47.332;9.404;2023-07-29T00:37:01;92512.59;;;17.12;75.40
65376;BME280;51976;47.332;9.404;2023-07-29T00:39:27;92492.53;;;17.16;75.50
65376;BME280;51976;47.332;9.404;2023-07-29T00:41:52;92507.44;;;17.19;75.66
65376;BME280;51976;47.332;9.404;2023-07-29T00:44:17;92497.84;;;17.34;75.27
65376;BME280;51976;47.332;9.404;2023-07-29T00:46:44;92494.28;;;17.42;74.87
65376;BME280;51976;47.332;9.404;2023-07-29T00:49:10;92497.66;;;17.39;75.30
65376;BME280;51976;47.332;9.404;2023-07-29T00:51:36;92492.22;;;17.39;75.07
65376;BME280;51976;47.332;9.404;2023-07-29T00:54:01;92489.69;;;17.34;75.32
65376;BME280;51976;47.332;9.404;2023-07-29T00:56:27;92488.56;;;17.35;75.35
65376;BME280;51976;47.332;9.404;2023-07-29T00:58:52;92498.31;;;17.36;75.23
65376;BME280;51976;47.332;9.404;2023-07-29T01:01:24;92490.53;;;17.05;75.83
65376;BME280;51976;47.332;9.404;2023-07-29T01:03:49;92502.34;;;17.09;76.12
65376;BME280;51976;47.332;9.404;2023-07-29T01:06:41;92492.94;;;17.27;75.44
65376;BME280;51976;47.332;9.404;2023-07-29T01:09:17;92485.03;;;17.34;75.45
65376;BME280;51976;47.332;9.404;2023-07-29T01:12:09;92482.63;;;17.33;75.31
65376;BME280;51976;47.332;9.404;2023-07-29T01:14:59;92485.78;;;17.22;76.06
65376;BME280;51976;47.332;9.404;2023-07-29T01:17:33;92485.81;;;17.14;75.95
65376;BME280;51976;47.332;9.404;2023-07-29T01:20:07;92483.47;;;17.04;76.15
65376;BME280;51976;47.332;9.404;2023-07-29T01:22:34;92487.47;;;17.06;76.30
65376;BME280;51976;47.332;9.404;2023-07-29T01:25:00;92477.53;;;17.10;76.36
65376;BME280;51976;47.332;9.404;2023-07-29T01:27:26;92482.03;;;17.06;76.10
65376;BME280;51976;47.332;9.404;2023-07-29T01:29:52;92482.16;;;17.10;76.27
65376;BME280;51976;47.332;9.404;2023-07-29T01:32:29;92484.75;;;17.27;75.75
65376;BME280;51976;47.332;9.404;2023-07-29T01:35:03;92467.28;;;17.28;75.27
65376;BME280;51976;47.332;9.404;2023-07-29T01:37:35;92473.19;;;16.88;77.21
65376;BME280;51976;47.332;9.404;2023-07-29T01:40:03;92476.41;;;16.82;77.29
65376;BME280;51976;47.332;9.404;2023-07-29T01:42:29;92476.03;;;16.92;77.32
65376;BME280;51976;47.332;9.404;2023-07-29T01:44:56;92475.94;;;16.80;77.28
65376;BME280;51976;47.332;9.404;2023-07-29T01:47:21;92473.06;;;16.76;77.43
65376;BME280;51976;47.332;9.404;2023-07-29T01:49:48;92467.72;;;16.59;78.22
65376;BME280;51976;47.332;9.404;2023-07-29T01:52:13;92473.59;;;16.70;77.94
65376;BME280;51976;47.332;9.404;2023-07-29T01:54:38;92460.84;;;16.91;77.15
65376;BME280;51976;47.332;9.404;2023-07-29T01:57:04;92471.13;;;17.06;76.67
65376;BME280;51976;47.332;9.404;2023-07-29T01:59:29;92464.09;;;17.05;76.15
65376;BME280;51976;47.332;9.404;2023-07-29T02:01:55;92463.72;;;17.15;76.04
65376;BME280;51976;47.332;9.404;2023-07-29T02:04:20;92459.59;;;17.09;76.26
65376;BME280;51976;47.332;9.404;2023-07-29T02:06:45;92463.72;;;17.15;76.78
65376;BME280;51976;47.332;9.404;2023-07-29T02:09:11;92447.69;;;17.14;76.37
65376;BME280;51976;47.332;9.404;2023-07-29T02:11:36;92456.00;;;17.17;76.29
65376;BME280;51976;47.332;9.404;2023-07-29T02:14:02;92448.97;;;17.16;76.39
65376;BME280;51976;47.332;9.404;2023-07-29T02:16:27;92448.56;;;17.06;76.51
65376;BME280;51976;47.332;9.404;2023-07-29T02:18:53;92452.06;;;17.06;76.67
65376;BME280;51976;47.332;9.404;2023-07-29T02:21:18;92433.75;;;16.95;76.90
65376;BME280;51976;47.332;9.404;2023-07-29T02:23:43;92445.88;;;16.97;77.08
65376;BME280;51976;47.332;9.404;2023-07-29T02:26:09;92441.19;;;17.06;76.91
65376;BME280;51976;47.332;9.404;2023-07-29T02:28:34;92443.03;;;17.14;76.63
65376;BME280;51976;47.332;9.404;2023-07-29T02:31:12;92443.03;;;17.14;76.31
65376;BME280;51976;47.332;9.404;2023-07-29T02:33:37;92441.78;;;17.12;76.32
65376;BME280;51976;47.332;9.404;2023-07-29T02:36:02;92444.84;;;17.10;76.49
65376;BME280;51976;47.332;9.404;2023-07-29T02:38:28;92433.00;;;16.85;76.46
65376;BME280;51976;47.332;9.404;2023-07-29T02:40:53;92431.81;;;16.95;76.58
65376;BME280;51976;47.332;9.404;2023-07-29T02:43:19;92439.38;;;17.10;76.13
65376;BME280;51976;47.332;9.404;2023-07-29T02:45:44;92428.91;;;17.21;75.76
65376;BME280;51976;47.332;9.404;2023-07-29T02:48:09;92421.88;;;17.20;75.49
65376;BME280;51976;47.332;9.404;2023-07-29T02:50:35;92421.25;;;17.14;75.54
65376;BME280;51976;47.332;9.404;2023-07-29T02:53:00;92421.72;;;17.16;75.64
65376;BME280;51976;47.332;9.404;2023-07-29T02:55:26;92429.69;;;17.21;75.36
65376;BME280;51976;47.332;9.404;2023-07-29T02:57:52;92437.78;;;17.09;76.04
65376;BME280;51976;47.332;9.404;2023-07-29T03:00:17;92424.66;;;17.11;75.95
65376;BME280;51976;47.332;9.404;2023-07-29T03:02:43;92427.09;;;16.83;76.80
65376;BME280;51976;47.332;9.404;2023-07-29T03:05:08;92425.50;;;16.82;76.97
65376;BME280;51976;47.332;9.404;2023-07-29T03:07:33;92432.19;;;16.85;76.88
65376;BME280;51976;47.332;9.404;2023-07-29T03:09:59;92426.09;;;16.88;76.73
65376;BME280;51976;47.332;9.404;2023-07-29T03:12:24;92432.63;;;16.96;76.28
65376;BME280;51976;47.332;9.404;2023-07-29T03:14:50;92435.13;;;17.01;76.17
65376;BME280;51976;47.332;9.404;2023-07-29T03:17:15;92427.28;;;16.99;75.93
65376;BME280;51976;47.332;9.404;2023-07-29T03:19:41;92433.00;;;17.06;75.79
65376;BME280;51976;47.332;9.404;2023-07-29T03:22:06;92428.06;;;16.79;77.05
65376;BME280;51976;47.332;9.404;2023-07-29T03:24:32;92434.28;;;16.88;76.79
65376;BME280;51976;47.332;9.404;2023-07-29T03:26:57;92430.22;;;16.94;76.85
65376;BME280;51976;47.332;9.404;2023-07-29T03:29:23;92439.53;;;16.93;76.80
65376;BME280;51976;47.332;9.404;2023-07-29T03:31:48;92433.13;;;16.89;76.50
65376;BME280;51976;47.332;9.404;2023-07-29T03:34:14;92448.91;;;16.75;76.92
65376;BME280;51976;47.332;9.404;2023-07-29T03:36:39;92454.91;;;16.89;76.34
65376;BME280;51976;47.332;9.404;2023-07-29T03:39:05;92474.16;;;16.84;76.40
65376;BME280;51976;47.332;9.404;2023-07-29T03:41:31;92470.50;;;16.80;76.83
65376;BME280;51976;47.332;9.404;2023-07-29T03:43:56;92471.78;;;16.82;76.44
65376;BME280;51976;47.332;9.404;2023-07-29T03:46:21;92478.81;;;16.83;76.81
65376;BME280;51976;47.332;9.404;2023-07-29T03:48:47;92492.09;;;16.85;77.39
65376;BME280;51976;47.332;9.404;2023-07-29T03:51:13;92492.75;;;16.82;77.48
65376;BME280;51976;47.332;9.404;2023-07-29T03:53:38;92497.31;;;16.61;78.86
65376;BME280;51976;47.332;9.404;2023-07-29T03:56:04;92490.59;;;16.58;79.96
65376;BME280;51976;47.332;9.404;2023-07-29T03:58:29;92497.31;;;16.61;79.91
65376;BME280;51976;47.332;9.404;2023-07-29T04:00:54;92493.41;;;16.41;81.51
65376;BME280;51976;47.332;9.404;2023-07-29T04:03:20;92488.94;;;16.36;81.55
65376;BME280;51976;47.332;9.404;2023-07-29T04:05:45;92472.31;;;16.29;81.96
65376;BME280;51976;47.332;9.404;2023-07-29T04:08:11;92469.31;;;16.22;82.42
65376;BME280;51976;47.332;9.404;2023-07-29T04:10:36;92480.19;;;16.22;83.15
65376;BME280;51976;47.332;9.404;2023-07-29T04:13:03;92485.69;;;16.05;83.82
65376;BME280;51976;47.332;9.404;2023-07-29T04:15:28;92504.72;;;16.05;83.42
65376;BME280;51976;47.332;9.404;2023-07-29T04:17:54;92515.22;;;16.23;83.34
65376;BME280;51976;47.332;9.404;2023-07-29T04:20:20;92509.09;;;16.35;82.78
65376;BME280;51976;47.332;9.404;2023-07-29T04:22:45;92516.66;;;16.30;83.09
65376;BME280;51976;47.332;9.404;2023-07-29T04:25:11;92528.78;;;16.32;83.72
65376;BME280;51976;47.332;9.404;2023-07-29T04:27:37;92540.56;;;16.45;83.68
65376;BME280;51976;47.332;9.404;2023-07-29T04:30:03;92563.59;;;16.65;83.16
65376;BME280;51976;47.332;9.404;2023-07-29T04:32:28;92518.34;;;16.43;82.74
65376;BME280;51976;47.332;9.404;2023-07-29T04:34:54;92524.81;;;16.30;84.79
65376;BME280;51976;47.332;9.404;2023-07-29T04:37:19;92513.13;;;16.29;84.73
65376;BME280;51976;47.332;9.404;2023-07-29T04:39:45;92502.09;;;16.17;85.86
65376;BME280;51976;47.332;9.404;2023-07-29T04:42:10;92490.97;;;15.93;85.96
65376;BME280;51976;47.332;9.404;2023-07-29T04:44:36;92472.00;;;15.75;87.30
65376;BME280;51976;47.332;9.404;2023-07-29T04:47:01;92470.88;;;15.85;87.16
65376;BME280;51976;47.332;9.404;2023-07-29T04:49:26;92480.75;;;15.89;86.49
65376;BME280;51976;47.332;9.404;2023-07-29T04:51:52;92475.78;;;16.00;85.32
65376;BME280;51976;47.332;9.404;2023-07-29T04:54:17;92477.69;;;16.08;85.24
65376;BME280;51976;47.332;9.404;2023-07-29T04:56:45;92478.56;;;16.30;84.82
65376;BME280;51976;47.332;9.404;2023-07-29T04:59:11;92474.97;;;16.46;84.15
65376;BME280;51976;47.332;9.404;2023-07-29T05:01:38;92484.53;;;16.52;84.64
65376;BME280;51976;47.332;9.404;2023-07-29T05:04:03;92478.63;;;16.50;84.57
65376;BME280;51976;47.332;9.404;2023-07-29T05:06:29;92470.31;;;16.47;84.40
65376;BME280;51976;47.332;9.404;2023-07-29T05:08:56;92462.78;;;16.52;84.58
65376;BME280;51976;47.332;9.404;2023-07-29T05:11:22;92473.91;;;16.39;85.21
65376;BME280;51976;47.332;9.404;2023-07-29T05:13:47;92456.31;;;16.36;85.52
65376;BME280;51976;47.332;9.404;2023-07-29T05:16:13;92481.16;;;16.55;85.46
65376;BME280;51976;47.332;9.404;2023-07-29T05:18:38;92482.13;;;16.59;85.09
65376;BME280;51976;47.332;9.404;2023-07-29T05:21:03;92489.59;;;16.71;84.99
65376;BME280;51976;47.332;9.404;2023-07-29T05:23:29;92492.19;;;16.68;84.16
65376;BME280;51976;47.332;9.404;2023-07-29T05:25:54;92482.22;;;16.72;83.18
65376;BME280;51976;47.332;9.404;2023-07-29T05:28:20;92490.34;;;16.80;83.13
65376;BME280;51976;47.332;9.404;2023-07-29T05:30:45;92496.91;;;17.09;82.64
65376;BME280;51976;47.332;9.404;2023-07-29T05:33:10;92481.97;;;17.36;81.97
65376;BME280;51976;47.332;9.404;2023-07-29T05:35:37;92480.03;;;17.57;81.03
65376;BME280;51976;47.332;9.404;2023-07-29T05:38:02;92471.81;;;17.99;79.67
65376;BME280;51976;47.332;9.404;2023-07-29T05:40:29;92465.19;;;18.45;77.47
65376;BME280;51976;47.332;9.404;2023-07-29T05:42:54;92480.31;;;18.42;77.28
65376;BME280;51976;47.332;9.404;2023-07-29T05:45:19;92485.97;;;18.25;79.16
65376;BME280;51976;47.332;9.404;2023-07-29T05:47:45;92480.56;;;18.49;78.00
65376;BME280;51976;47.332;9.404;2023-07-29T05:50:10;92486.91;;;18.29;78.57
65376;BME280;51976;47.332;9.404;2023-07-29T05:52:36;92489.25;;;18.18;79.27
65376;BME280;51976;47.332;9.404;2023-07-29T05:55:02;92492.81;;;18.31;79.31
65376;BME280;51976;47.332;9.404;2023-07-29T05:57:28;92511.53;;;18.20;79.57
65376;BME280;51976;47.332;9.404;2023-07-29T05:59:53;92505.56;;;18.06;78.95
65376;BME280;51976;47.332;9.404;2023-07-29T06:02:18;92506.28;;;18.03;79.40
65376;BME280;51976;47.332;9.404;2023-07-29T06:04:44;92515.69;;;18.06;79.47
65376;BME280;51976;47.332;9.404;2023-07-29T06:07:09;92501.59;;;17.71;79.79
65376;BME280;51976;47.332;9.404;2023-07-29T06:09:35;92503.53;;;17.70;80.15
65376;BME280;51976;47.332;9.404;2023-07-29T06:12:00;92526.75;;;17.76;81.22
65376;BME280;51976;47.332;9.404;2023-07-29T06:14:26;92508.97;;;17.70;81.26
65376;BME280;51976;47.332;9.404;2023-07-29T06:16:51;92516.81;;;17.72;81.76
65376;BME280;51976;47.332;9.404;2023-07-29T06:19:18;92518.22;;;17.78;81.95
65376;BME280;51976;47.332;9.404;2023-07-29T06:21:43;92529.56;;;17.80;82.14
65376;BME280;51976;47.332;9.404;2023-07-29T06:24:09;92525.09;;;17.54;83.17
65376;BME280;51976;47.332;9.404;2023-07-29T06:26:34;92532.91;;;17.65;83.92
65376;BME280;51976;47.332;9.404;2023-07-29T06:29:00;92539.91;;;17.74;83.71
65376;BME280;51976;47.332;9.404;2023-07-29T06:31:25;92549.13;;;17.82;83.48
65376;BME280;51976;47.332;9.404;2023-07-29T06:33:50;92548.53;;;17.76;83.50
65376;BME280;51976;47.332;9.404;2023-07-29T06:36:16;92561.03;;;17.77;82.08
65376;BME280;51976;47.332;9.404;2023-07-29T06:38:41;92553.78;;;17.81;83.03
65376;BME280;51976;47.332;9.404;2023-07-29T06:41:07;92523.06;;;17.72;80.62
65376;BME280;51976;47.332;9.404;2023-07-29T06:43:32;92527.06;;;17.75;80.09
65376;BME280;51976;47.332;9.404;2023-07-29T06:45:58;92538.81;;;17.87;79.23
65376;BME280;51976;47.332;9.404;2023-07-29T06:48:23;92521.66;;;17.87;81.38
65376;BME280;51976;47.332;9.404;2023-07-29T06:50:49;92536.91;;;17.67;84.12
65376;BME280;51976;47.332;9.404;2023-07-29T06:53:15;92549.53;;;17.72;84.38
65376;BME280;51976;47.332;9.404;2023-07-29T06:55:41;92541.41;;;17.84;83.67
65376;BME280;51976;47.332;9.404;2023-07-29T06:58:06;92548.31;;;17.81;82.69
65376;BME280;51976;47.332;9.404;2023-07-29T07:00:32;92544.13;;;18.05;81.93
65376;BME280;51976;47.332;9.404;2023-07-29T07:02:58;92546.81;;;18.38;79.54
65376;BME280;51976;47.332;9.404;2023-07-29T07:05:23;92549.22;;;19.09;77.07
65376;BME280;51976;47.332;9.404;2023-07-29T07:07:49;92552.53;;;19.39;75.10
65376;BME280;51976;47.332;9.404;2023-07-29T07:10:14;92538.88;;;19.02;73.56
65376;BME280;51976;47.332;9.404;2023-07-29T07:12:39;92546.59;;;19.00;73.71
65376;BME280;51976;47.332;9.404;2023-07-29T07:15:05;92547.16;;;19.54;73.61
65376;BME280;51976;47.332;9.404;2023-07-29T07:17:31;92549.00;;;19.38;72.84
65376;BME280;51976;47.332;9.404;2023-07-29T07:19:56;92541.38;;;19.07;72.65
65376;BME280;51976;47.332;9.404;2023-07-29T07:22:22;92541.25;;;18.91;74.35
65376;BME280;51976;47.332;9.404;2023-07-29T07:24:47;92533.97;;;19.20;73.91
65376;BME280;51976;47.332;9.404;2023-07-29T07:27:12;92538.59;;;19.68;72.13
65376;BME280;51976;47.332;9.404;2023-07-29T07:29:38;92542.13;;;19.69;71.81
65376;BME280;51976;47.332;9.404;2023-07-29T07:32:03;92535.38;;;20.06;71.49
65376;BME280;51976;47.332;9.404;2023-07-29T07:34:29;92539.44;;;19.97;70.92
65376;BME280;51976;47.332;9.404;2023-07-29T07:36:54;92528.47;;;20.24;70.81
65376;BME280;51976;47.332;9.404;2023-07-29T07:39:19;92529.03;;;20.74;70.67
65376;BME280;51976;47.332;9.404;2023-07-29T07:41:45;92525.84;;;21.03;69.73
65376;BME280;51976;47.332;9.404;2023-07-29T07:44:10;92524.00;;;20.76;70.25
65376;BME280;51976;47.332;9.404;2023-07-29T07:46:40;92509.50;;;20.75;70.67
65376;BME280;51976;47.332;9.404;2023-07-29T07:49:06;92519.81;;;20.82;69.30
65376;BME280;51976;47.332;9.404;2023-07-29T07:51:31;92506.84;;;20.63;69.63
65376;BME280;51976;47.332;9.404;2023-07-29T07:53:56;92521.06;;;20.84;68.90
65376;BME280;51976;47.332;9.404;2023-07-29T07:56:22;92505.06;;;21.02;68.74
65376;BME280;51976;47.332;9.404;2023-07-29T07:58:47;92512.38;;;21.14;68.02
65376;BME280;51976;47.332;9.404;2023-07-29T08:01:12;92507.97;;;21.09;67.76
65376;BME280;51976;47.332;9.404;2023-07-29T08:03:38;92503.56;;;21.20;66.98
65376;BME280;51976;47.332;9.404;2023-07-29T08:06:04;92494.66;;;21.58;65.78
65376;BME280;51976;47.332;9.404;2023-07-29T08:08:29;92499.19;;;21.70;64.88
65376;BME280;51976;47.332;9.404;2023-07-29T08:10:56;92507.38;;;21.86;64.78
65376;BME280;51976;47.332;9.404;2023-07-29T08:13:23;92494.03;;;22.23;64.89
65376;BME280;51976;47.332;9.404;2023-07-29T08:15:49;92494.53;;;22.28;65.20
65376;BME280;51976;47.332;9.404;2023-07-29T08:18:15;92491.22;;;22.39;64.31
65376;BME280;51976;47.332;9.404;2023-07-29T08:20:41;92497.13;;;22.41;64.30
65376;BME280;51976;47.332;9.404;2023-07-29T08:23:07;92499.38;;;22.35;64.14
65376;BME280;51976;47.332;9.404;2023-07-29T08:25:32;92496.34;;;22.40;61.93
65376;BME280;51976;47.332;9.404;2023-07-29T08:27:57;92494.59;;;22.32;63.22
65376;BME280;51976;47.332;9.404;2023-07-29T08:30:23;92492.63;;;22.52;62.02
65376;BME280;51976;47.332;9.404;2023-07-29T08:32:48;92488.53;;;22.42;61.80
65376;BME280;51976;47.332;9.404;2023-07-29T08:35:13;92488.34;;;22.54;61.95
65376;BME280;51976;47.332;9.404;2023-07-29T08:37:39;92489.06;;;22.93;60.83
65376;BME280;51976;47.332;9.404;2023-07-29T08:40:05;92494.25;;;23.21;59.67
65376;BME280;51976;47.332;9.404;2023-07-29T08:42:32;92495.50;;;23.27;58.99
65376;BME280;51976;47.332;9.404;2023-07-29T08:45:01;92486.84;;;23.03;58.48
65376;BME280;51976;47.332;9.404;2023-07-29T08:47:30;92494.00;;;22.84;58.53
65376;BME280;51976;47.332;9.404;2023-07-29T08:49:56;92489.41;;;22.69;57.35
65376;BME280;51976;47.332;9.404;2023-07-29T08:52:23;92493.25;;;22.65;58.78
65376;BME280;51976;47.332;9.404;2023-07-29T08:54:49;92482.31;;;22.68;59.25
65376;BME280;51976;47.332;9.404;2023-07-29T08:57:16;92495.28;;;22.48;58.92
65376;BME280;51976;47.332;9.404;2023-07-29T08:59:41;92486.81;;;22.57;58.35
65376;BME280;51976;47.332;9.404;2023-07-29T09:02:07;92492.03;;;22.62;58.90
65376;BME280;51976;47.332;9.404;2023-07-29T09:04:33;92493.19;;;22.61;56.65
65376;BME280;51976;47.332;9.404;2023-07-29T09:06:59;92494.06;;;22.88;56.27
65376;BME280;51976;47.332;9.404;2023-07-29T09:09:25;92480.13;;;23.00;56.78
65376;BME280;51976;47.332;9.404;2023-07-29T09:11:51;92487.69;;;23.07;55.94
65376;BME280;51976;47.332;9.404;2023-07-29T09:14:17;92496.25;;;23.02;56.27
65376;BME280;51976;47.332;9.404;2023-07-29T09:16:43;92491.75;;;22.90;55.25
65376;BME280;51976;47.332;9.404;2023-07-29T09:19:09;92483.97;;;23.18;55.13
65376;BME280;51976;47.332;9.404;2023-07-29T09:21:38;92494.75;;;23.30;55.27
65376;BME280;51976;47.332;9.404;2023-07-29T09:24:05;92488.81;;;23.28;56.12
65376;BME280;51976;47.332;9.404;2023-07-29T09:26:32;92497.66;;;23.15;55.46
65376;BME280;51976;47.332;9.404;2023-07-29T09:28:59;92492.28;;;22.99;54.93
65376;BME280;51976;47.332;9.404;2023-07-29T09:31:27;92507.81;;;22.88;55.64
65376;BME280;51976;47.332;9.404;2023-07-29T09:33:56;92499.88;;;22.83;55.26
65376;BME280;51976;47.332;9.404;2023-07-29T09:36:23;92515.63;;;22.86;55.49
65376;BME280;51976;47.332;9.404;2023-07-29T09:38:55;92505.44;;;22.86;55.78
65376;BME280;51976;47.332;9.404;2023-07-29T09:41:25;92516.63;;;22.97;54.88
65376;BME280;51976;47.332;9.404;2023-07-29T09:44:01;92497.84;;;23.03;55.07
65376;BME280;51976;47.332;9.404;2023-07-29T09:46:34;92507.31;;;23.05;55.64
65376;BME280;51976;47.332;9.404;2023-07-29T09:49:04;92504.63;;;23.09;55.45
65376;BME280;51976;47.332;9.404;2023-07-29T09:51:31;92497.75;;;22.95;55.30
65376;BME280;51976;47.332;9.404;2023-07-29T09:53:56;92504.50;;;23.24;54.95
65376;BME280;51976;47.332;9.404;2023-07-29T09:56:25;92503.75;;;23.27;55.31
65376;BME280;51976;47.332;9.404;2023-07-29T09:58:51;92494.78;;;23.08;55.08
65376;BME280;51976;47.332;9.404;2023-07-29T10:01:17;92471.88;;;23.23;54.63
65376;BME280;51976;47.332;9.404;2023-07-29T10:03:44;92496.25;;;23.51;55.08
65376;BME280;51976;47.332;9.404;2023-07-29T10:06:10;92482.03;;;23.72;53.96
65376;BME280;51976;47.332;9.404;2023-07-29T10:08:36;92480.78;;;23.95;54.10
65376;BME280;51976;47.332;9.404;2023-07-29T10:11:06;92487.31;;;24.17;53.76
65376;BME280;51976;47.332;9.404;2023-07-29T10:13:32;92487.16;;;24.33;54.28
65376;BME280;51976;47.332;9.404;2023-07-29T10:15:58;92484.19;;;24.19;53.51
65376;BME280;51976;47.332;9.404;2023-07-29T10:18:24;92480.63;;;23.85;54.60
65376;BME280;51976;47.332;9.404;2023-07-29T10:20:51;92486.38;;;24.03;54.25
65376;BME280;51976;47.332;9.404;2023-07-29T10:23:18;92486.69;;;23.98;54.19
65376;BME280;51976;47.332;9.404;2023-07-29T10:25:47;92478.28;;;23.57;54.67
65376;BME280;51976;47.332;9.404;2023-07-29T10:28:15;92485.28;;;23.81;54.95
65376;BME280;51976;47.332;9.404;2023-07-29T10:30:43;92476.94;;;24.37;53.39
65376;BME280;51976;47.332;9.404;2023-07-29T10:33:08;92481.78;;;24.47;53.95
65376;BME280;51976;47.332;9.404;2023-07-29T10:35:36;92480.13;;;24.39;53.51
65376;BME280;51976;47.332;9.404;2023-07-29T10:38:03;92476.91;;;24.30;54.15
65376;BME280;51976;47.332;9.404;2023-07-29T10:40:51;92490.72;;;24.34;54.37
65376;BME280;51976;47.332;9.404;2023-07-29T10:43:23;92492.53;;;24.56;53.91
65376;BME280;51976;47.332;9.404;2023-07-29T10:45:49;92480.63;;;24.48;53.30
65376;BME280;51976;47.332;9.404;2023-07-29T10:48:39;92476.91;;;24.30;53.70
65376;BME280;51976;47.332;9.404;2023-07-29T10:51:23;92481.13;;;24.57;53.28
65376;BME280;51976;47.332;9.404;2023-07-29T10:54:03;92486.69;;;24.64;53.54
65376;BME280;51976;47.332;9.404;2023-07-29T10:56:34;92474.47;;;25.03;52.49
65376;BME280;51976;47.332;9.404;2023-07-29T10:59:30;92471.41;;;25.11;52.18
65376;BME280;51976;47.332;9.404;2023-07-29T11:01:58;92463.63;;;24.80;52.68
65376;BME280;51976;47.332;9.404;2023-07-29T11:04:25;92459.84;;;24.95;52.65
65376;BME280;51976;47.332;9.404;2023-07-29T11:07:19;92461.50;;;24.66;53.84
65376;BME280;51976;47.332;9.404;2023-07-29T11:09:59;92465.69;;;24.49;53.77
65376;BME280;51976;47.332;9.404;2023-07-29T11:12:45;92457.75;;;24.85;53.11
65376;BME280;51976;47.332;9.404;2023-07-29T11:15:21;92451.78;;;25.23;52.56
65376;BME280;51976;47.332;9.404;2023-07-29T11:17:53;92452.13;;;25.18;52.34
65376;BME280;51976;47.332;9.404;2023-07-29T11:20:30;92453.84;;;25.34;51.69
65376;BME280;51976;47.332;9.404;2023-07-29T11:22:57;92446.38;;;25.38;51.70
65376;BME280;51976;47.332;9.404;2023-07-29T11:25:24;92445.81;;;25.11;51.86
65376;BME280;51976;47.332;9.404;2023-07-29T11:27:53;92442.16;;;25.00;51.05
65376;BME280;51976;47.332;9.404;2023-07-29T11:30:19;92437.56;;;25.18;50.93
65376;BME280;51976;47.332;9.404;2023-07-29T11:32:46;92424.31;;;25.38;50.43
65376;BME280;51976;47.332;9.404;2023-07-29T11:35:16;92416.84;;;25.42;50.84
65376;BME280;51976;47.332;9.404;2023-07-29T11:37:44;92420.28;;;25.24;51.11
65376;BME280;51976;47.332;9.404;2023-07-29T11:40:14;92406.91;;;25.30;51.02
65376;BME280;51976;47.332;9.404;2023-07-29T11:42:40;92415.25;;;25.37;50.55
65376;BME280;51976;47.332;9.404;2023-07-29T11:45:06;92405.25;;;25.18;51.16
65376;BME280;51976;47.332;9.404;2023-07-29T11:47:33;92402.81;;;24.62;52.73
65376;BME280;51976;47.332;9.404;2023-07-29T11:50:04;92409.19;;;24.70;52.52
65376;BME280;51976;47.332;9.404;2023-07-29T11:52:34;92409.66;;;24.38;53.40
65376;BME280;51976;47.332;9.404;2023-07-29T11:55:01;92403.16;;;24.20;53.88
65376;BME280;51976;47.332;9.404;2023-07-29T11:57:28;92392.47;;;24.15;53.79
65376;BME280;51976;47.332;9.404;2023-07-29T11:59:53;92400.31;;;24.13;53.87
65376;BME280;51976;47.332;9.404;2023-07-29T12:02:20;92398.19;;;23.95;54.69
65376;BME280;51976;47.332;9.404;2023-07-29T12:04:47;92394.34;;;23.70;55.10
65376;BME280;51976;47.332;9.404;2023-07-29T12:07:14;92389.13;;;23.61;55.45
65376;BME280;51976;47.332;9.404;2023-07-29T12:09:40;92398.84;;;23.55;56.18
65376;BME280;51976;47.332;9.404;2023-07-29T12:12:07;92401.88;;;23.47;56.59
65376;BME280;51976;47.332;9.404;2023-07-29T12:14:33;92405.91;;;23.26;56.69
65376;BME280;51976;47.332;9.404;2023-07-29T12:17:03;92400.19;;;22.86;59.71
65376;BME280;51976;47.332;9.404;2023-07-29T12:19:33;92429.84;;;22.77;60.49
65376;BME280;51976;47.332;9.404;2023-07-29T12:22:00;92432.13;;;22.48;62.31
65376;BME280;51976;47.332;9.404;2023-07-29T12:24:25;92436.00;;;22.24;64.62
65376;BME280;51976;47.332;9.404;2023-07-29T12:26:51;92446.66;;;22.07;66.49
65376;BME280;51976;47.332;9.404;2023-07-29T12:29:18;92459.50;;;21.83;66.86
65376;BME280;51976;47.332;9.404;2023-07-29T12:31:47;92466.63;;;21.49;68.26
65376;BME280;51976;47.332;9.404;2023-07-29T12:34:19;92481.09;;;21.31;70.11
65376;BME280;51976;47.332;9.404;2023-07-29T12:36:49;92496.59;;;20.91;71.34
65376;BME280;51976;47.332;9.404;2023-07-29T12:39:19;92525.06;;;20.71;72.76
65376;BME280;51976;47.332;9.404;2023-07-29T12:41:46;92562.28;;;20.44;73.84
65376;BME280;51976;47.332;9.404;2023-07-29T12:44:12;92583.03;;;19.65;73.28
65376;BME280;51976;47.332;9.404;2023-07-29T12:46:37;92550.56;;;18.66;65.01
65376;BME280;51976;47.332;9.404;2023-07-29T12:49:03;92580.72;;;18.70;68.08
65376;BME280;51976;47.332;9.404;2023-07-29T12:51:28;92563.44;;;18.78;73.31
65376;BME280;51976;47.332;9.404;2023-07-29T12:53:54;92530.69;;;19.02;74.87
65376;BME280;51976;47.332;9.404;2023-07-29T12:56:19;92536.38;;;19.09;75.89
65376;BME280;51976;47.332;9.404;2023-07-29T12:58:45;92553.66;;;19.01;76.19